Time;durP1;ratioP1;P1;durP2;ratioP2;P2;SDS_P1;SDS_P2;PMS_P1;PMS_P2;Temp;Humidity;BMP_temperature;BMP_pressure;BME280_temperature;BME280_humidity;BME280_pressure;Samples;Min_cycle;Max_cycle;Signal;HPM_P1;HPM_P2
2023/03/05 00:01:28;;;;;;;31.00;9.15;;;3.30;99.90;;;;;;4960395;29;20213;-86
2023/03/05 00:03:55;;;;;;;29.38;10.30;;;3.30;99.90;;;;;;4961299;28;20172;-86
2023/03/05 00:06:23;;;;;;;33.83;11.82;;;3.40;99.90;;;;;;4949752;29;20255;-86
2023/03/05 00:08:50;;;;;;;26.08;11.23;;;3.40;99.90;;;;;;4938423;29;20233;-86
2023/03/05 00:11:15;;;;;;;29.40;11.65;;;3.30;99.90;;;;;;4961237;29;20191;-85
2023/03/05 00:13:41;;;;;;;36.17;10.50;;;3.40;99.90;;;;;;4964165;28;20600;-86
2023/03/05 00:16:09;;;;;;;27.43;10.47;;;3.40;99.90;;;;;;4949650;29;20183;-86
2023/03/05 00:18:36;;;;;;;25.00;9.55;;;3.40;99.90;;;;;;4964962;28;20201;-86
2023/03/05 00:21:01;;;;;;;30.55;11.65;;;3.40;99.90;;;;;;4951184;29;20293;-86
2023/03/05 00:23:27;;;;;;;36.53;13.33;;;;;;;;;;4948474;29;20169;-86
2023/03/05 00:25:53;;;;;;;33.83;14.02;;;3.50;99.90;;;;;;4963922;29;20511;-86
2023/03/05 00:28:18;;;;;;;31.77;12.30;;;3.50;99.90;;;;;;4963143;29;20216;-86
2023/03/05 00:30:44;;;;;;;47.80;13.63;;;3.50;99.90;;;;;;4947948;29;20207;-84
2023/03/05 00:33:11;;;;;;;36.53;13.17;;;3.50;99.90;;;;;;4946770;29;20180;-85
2023/03/05 00:35:45;;;;;;;25.38;11.32;;;3.40;99.90;;;;;;4947088;29;20498;-85
2023/03/05 00:38:11;;;;;;;33.00;10.93;;;3.40;99.90;;;;;;4946780;29;20208;-85
2023/03/05 00:40:38;;;;;;;33.35;10.80;;;3.40;99.90;;;;;;4963229;29;20200;-84
2023/03/05 00:43:04;;;;;;;38.63;13.43;;;3.30;99.90;;;;;;4964979;29;20177;-86
2023/03/05 00:45:29;;;;;;;27.35;10.80;;;3.30;99.90;;;;;;4964908;29;20267;-85
2023/03/05 00:47:55;;;;;;;29.43;10.50;;;;;;;;;;4947405;29;20196;-85
2023/03/05 00:50:21;;;;;;;29.03;11.70;;;;;;;;;;4947220;29;20506;-85
2023/03/05 00:52:47;;;;;;;27.93;9.87;;;;;;;;;;4964549;28;20420;-84
2023/03/05 00:55:13;;;;;;;20.77;9.23;;;3.30;99.90;;;;;;4946215;29;20431;-85
2023/03/05 00:57:38;;;;;;;20.50;8.27;;;3.30;99.90;;;;;;4949842;29;20559;-86
2023/03/05 01:00:05;;;;;;;29.80;9.20;;;3.30;99.90;;;;;;4946641;29;20251;-85
2023/03/05 01:02:30;;;;;;;21.33;8.90;;;3.30;99.90;;;;;;4948945;29;20207;-86
2023/03/05 01:04:56;;;;;;;21.77;8.60;;;3.30;99.90;;;;;;4961595;28;20182;-83
2023/03/05 01:07:21;;;;;;;25.43;7.53;;;3.40;99.90;;;;;;4938703;29;20192;-83
2023/03/05 01:09:47;;;;;;;25.53;8.00;;;3.40;99.90;;;;;;4941833;28;20172;-83
2023/03/05 01:12:12;;;;;;;22.10;9.03;;;3.50;99.90;;;;;;4939199;29;20173;-84
2023/03/05 01:14:38;;;;;;;25.73;9.63;;;3.50;99.90;;;;;;4951723;29;20200;-84
2023/03/05 01:17:04;;;;;;;17.13;7.80;;;;;;;;;;4943422;28;20172;-83
2023/03/05 01:19:29;;;;;;;17.48;7.13;;;3.50;99.90;;;;;;4956296;29;20180;-85
2023/03/05 01:21:55;;;;;;;22.37;8.13;;;3.50;99.90;;;;;;4936626;28;20201;-84
2023/03/05 01:24:21;;;;;;;17.93;9.10;;;3.60;99.90;;;;;;4940135;29;20716;-84
2023/03/05 01:26:48;;;;;;;17.00;7.10;;;3.60;99.90;;;;;;4952366;29;20288;-83
2023/03/05 01:29:14;;;;;;;24.35;8.50;;;3.60;99.90;;;;;;4938790;28;20472;-83
2023/03/05 01:31:39;;;;;;;21.20;8.53;;;3.60;99.90;;;;;;4933950;29;20711;-84
2023/03/05 01:34:05;;;;;;;31.23;9.70;;;3.60;99.90;;;;;;4949736;29;20460;-84
2023/03/05 01:36:30;;;;;;;23.30;9.00;;;3.60;99.90;;;;;;4939906;29;20184;-83
2023/03/05 01:38:56;;;;;;;22.13;7.60;;;3.60;99.90;;;;;;4942141;29;20217;-83
2023/03/05 01:41:22;;;;;;;22.73;11.10;;;3.60;99.90;;;;;;4942361;29;20203;-85
2023/03/05 01:43:48;;;;;;;24.30;10.13;;;3.60;99.90;;;;;;4942539;29;20177;-84
2023/03/05 01:46:30;;;;;;;24.77;8.95;;;3.60;99.90;;;;;;4943411;28;20969;-85
2023/03/05 01:49:10;;;;;;;22.05;10.40;;;3.60;99.90;;;;;;4947470;29;20207;-84
2023/03/05 01:52:01;;;;;;;24.63;9.90;;;3.60;99.90;;;;;;4963026;28;20173;-84
2023/03/05 01:54:32;;;;;;;24.00;8.70;;;3.50;99.90;;;;;;4951084;29;20197;-86
2023/03/05 01:57:05;;;;;;;22.77;8.60;;;3.60;99.90;;;;;;4946696;29;20195;-84
2023/03/05 01:59:31;;;;;;;22.58;9.10;;;3.60;99.90;;;;;;4960428;29;20224;-83
2023/03/05 02:01:58;;;;;;;25.30;9.95;;;3.60;99.90;;;;;;4956537;29;20192;-86
2023/03/05 02:04:29;;;;;;;17.02;8.13;;;3.40;99.90;;;;;;4940011;28;20201;-88
2023/03/05 02:06:55;;;;;;;21.75;9.07;;;3.50;99.90;;;;;;4955891;29;20673;-87
2023/03/05 02:09:24;;;;;;;26.00;9.03;;;3.50;99.90;;;;;;4961204;29;20251;-85
2023/03/05 02:11:50;;;;;;;22.80;9.88;;;3.50;99.90;;;;;;4947218;29;20894;-85
2023/03/05 02:14:16;;;;;;;39.60;9.55;;;3.50;99.90;;;;;;4951515;29;20217;-84
2023/03/05 02:16:42;;;;;;;23.77;9.87;;;3.50;99.90;;;;;;4953260;29;20177;-85
2023/03/05 02:19:10;;;;;;;26.07;10.07;;;3.50;99.90;;;;;;4950614;29;20224;-86
2023/03/05 02:21:42;;;;;;;30.40;10.10;;;3.50;99.90;;;;;;4955754;29;20484;-85
2023/03/05 02:24:12;;;;;;;24.13;10.38;;;3.50;99.90;;;;;;4956080;29;20383;-86
2023/03/05 02:26:38;;;;;;;21.48;9.82;;;3.50;99.90;;;;;;4946469;29;20175;-85
2023/03/05 02:29:07;;;;;;;22.10;11.48;;;3.50;99.90;;;;;;4943350;28;20203;-84
2023/03/05 02:31:33;;;;;;;22.17;10.15;;;3.50;99.90;;;;;;4965350;28;20625;-86
2023/03/05 02:33:58;;;;;;;20.87;8.53;;;3.50;99.90;;;;;;4958174;29;20197;-85
2023/03/05 02:36:24;;;;;;;24.37;9.47;;;3.50;99.90;;;;;;4962677;29;20184;-86
2023/03/05 02:38:52;;;;;;;27.55;9.90;;;3.50;99.90;;;;;;4962637;29;20252;-88
2023/03/05 02:41:18;;;;;;;27.38;9.13;;;3.80;99.90;;;;;;4941807;28;20248;-84
2023/03/05 02:43:43;;;;;;;15.38;8.50;;;3.80;99.90;;;;;;4951239;29;20193;-85
2023/03/05 02:46:09;;;;;;;25.63;8.80;;;3.50;99.90;;;;;;4961027;29;20177;-84
2023/03/05 02:48:35;;;;;;;20.13;8.43;;;3.40;99.90;;;;;;4946768;29;20660;-84
2023/03/05 02:51:02;;;;;;;23.30;8.97;;;3.40;99.90;;;;;;4947213;29;20443;-85
2023/03/05 02:53:28;;;;;;;34.40;10.00;;;3.50;99.90;;;;;;4943260;29;20248;-84
2023/03/05 02:55:54;;;;;;;28.23;10.43;;;3.40;99.90;;;;;;4942382;29;20207;-85
2023/03/05 02:58:19;;;;;;;24.00;9.57;;;3.50;99.90;;;;;;4948208;29;20235;-85
2023/03/05 03:00:45;;;;;;;27.63;11.20;;;3.50;99.90;;;;;;4937347;29;20208;-85
2023/03/05 03:03:11;;;;;;;23.33;9.80;;;3.80;99.90;;;;;;4938899;29;20189;-86
2023/03/05 03:05:37;;;;;;;25.65;10.38;;;4.10;99.90;;;;;;4956551;28;20180;-86
2023/03/05 03:08:03;;;;;;;26.37;10.53;;;3.80;99.90;;;;;;4953151;29;20208;-85
2023/03/05 03:10:29;;;;;;;27.50;11.25;;;3.40;99.90;;;;;;4949090;28;20820;-86
2023/03/05 03:12:55;;;;;;;22.87;9.67;;;4.00;99.90;;;;;;4945220;29;20188;-85
2023/03/05 03:15:20;;;;;;;30.23;11.50;;;3.80;99.90;;;;;;4949367;29;20523;-86
2023/03/05 03:17:46;;;;;;;15.20;8.23;;;3.30;99.90;;;;;;4951131;28;20250;-85
2023/03/05 03:20:14;;;;;;;30.47;11.57;;;3.40;99.90;;;;;;4963774;28;20561;-85
2023/03/05 03:22:40;;;;;;;27.40;10.57;;;3.40;99.90;;;;;;4960084;29;20232;-86
2023/03/05 03:25:06;;;;;;;23.60;10.00;;;3.40;99.90;;;;;;4942804;29;20181;-86
2023/03/05 03:27:32;;;;;;;22.20;8.75;;;3.40;99.90;;;;;;4956306;28;20685;-85
2023/03/05 03:30:01;;;;;;;21.60;10.77;;;3.40;99.90;;;;;;4958277;28;20195;-86
2023/03/05 03:32:27;;;;;;;21.27;11.02;;;3.40;99.90;;;;;;4949144;29;20189;-86
2023/03/05 03:34:53;;;;;;;20.30;10.07;;;3.40;99.90;;;;;;4965847;28;20191;-86
2023/03/05 03:37:25;;;;;;;27.93;9.77;;;3.40;99.90;;;;;;4938693;29;20201;-85
2023/03/05 03:39:50;;;;;;;34.83;11.50;;;3.70;99.90;;;;;;4961795;28;20188;-87
2023/03/05 03:42:19;;;;;;;22.40;10.50;;;3.40;99.90;;;;;;4946019;29;20189;-85
2023/03/05 03:44:44;;;;;;;30.20;12.65;;;3.30;99.90;;;;;;4964493;29;20183;-86
2023/03/05 03:47:10;;;;;;;30.20;12.67;;;3.30;99.90;;;;;;4964954;28;20200;-85
2023/03/05 03:49:35;;;;;;;31.33;10.50;;;3.30;99.90;;;;;;4964679;29;20207;-84
2023/03/05 03:52:01;;;;;;;20.23;10.57;;;4.20;99.90;;;;;;4965118;29;20190;-85
2023/03/05 03:54:26;;;;;;;33.70;10.80;;;3.30;99.90;;;;;;4962094;29;20208;-85
2023/03/05 03:56:52;;;;;;;26.77;10.23;;;3.90;99.90;;;;;;4962652;29;20181;-85
2023/03/05 03:59:17;;;;;;;36.50;12.00;;;4.00;99.90;;;;;;4950472;29;20209;-84
2023/03/05 04:01:43;;;;;;;20.80;8.70;;;3.70;99.90;;;;;;4955527;29;20291;-86
2023/03/05 04:04:11;;;;;;;28.73;10.00;;;3.70;99.90;;;;;;4954643;29;20195;-85
2023/03/05 04:06:37;;;;;;;22.80;11.02;;;4.00;99.90;;;;;;4942765;29;20203;-84
2023/03/05 04:09:03;;;;;;;30.93;9.37;;;3.30;99.90;;;;;;4950991;28;20622;-85
2023/03/05 04:11:28;;;;;;;31.85;10.15;;;3.30;99.90;;;;;;4950004;28;20177;-85
2023/03/05 04:13:54;;;;;;;33.03;10.83;;;3.30;99.90;;;;;;4953026;28;20181;-86
2023/03/05 04:16:19;;;;;;;23.47;10.10;;;3.30;99.90;;;;;;4948853;28;20272;-85
2023/03/05 04:18:45;;;;;;;32.97;11.30;;;3.30;99.90;;;;;;4946660;29;20200;-83
2023/03/05 04:21:11;;;;;;;23.87;10.63;;;3.30;99.90;;;;;;4952421;29;20657;-85
2023/03/05 04:23:38;;;;;;;29.52;9.10;;;3.30;99.90;;;;;;4957270;28;20696;-85
2023/03/05 04:26:04;;;;;;;22.58;9.73;;;3.30;99.90;;;;;;4953990;28;20192;-84
2023/03/05 04:28:30;;;;;;;28.63;11.13;;;3.30;99.90;;;;;;4944137;29;20247;-83
2023/03/05 04:30:55;;;;;;;22.47;9.40;;;3.30;99.90;;;;;;4968156;28;20184;-83
2023/03/05 04:33:21;;;;;;;19.80;9.83;;;3.30;99.90;;;;;;4961837;29;20184;-83
2023/03/05 04:35:46;;;;;;;28.07;12.37;;;3.30;99.90;;;;;;4964814;28;20259;-84
2023/03/05 04:38:12;;;;;;;27.20;12.00;;;3.30;99.90;;;;;;4960029;29;20756;-83
2023/03/05 04:40:38;;;;;;;31.17;11.37;;;3.30;99.90;;;;;;4935046;29;20193;-83
2023/03/05 04:43:04;;;;;;;23.00;10.03;;;3.30;99.90;;;;;;4955700;29;20176;-84
2023/03/05 04:45:29;;;;;;;30.77;13.82;;;3.30;99.90;;;;;;4942875;29;20181;-83
2023/03/05 04:47:55;;;;;;;30.37;12.70;;;3.30;99.90;;;;;;4954374;29;20260;-83
2023/03/05 04:50:21;;;;;;;28.23;11.50;;;3.30;99.90;;;;;;4950285;29;20228;-83
2023/03/05 04:52:46;;;;;;;30.83;11.37;;;3.40;99.90;;;;;;4949566;28;20475;-84
2023/03/05 04:55:14;;;;;;;22.70;11.57;;;3.30;99.90;;;;;;4950972;29;20181;-84
2023/03/05 04:57:40;;;;;;;35.33;10.88;;;3.30;99.90;;;;;;4950118;28;20272;-83
2023/03/05 05:00:15;;;;;;;25.90;12.82;;;3.40;99.90;;;;;;4951184;28;20526;-84
2023/03/05 05:02:46;;;;;;;26.13;11.80;;;3.30;99.90;;;;;;4954023;28;20176;-84
2023/03/05 05:05:17;;;;;;;24.90;12.98;;;3.30;99.90;;;;;;4953571;28;20181;-83
2023/03/05 05:07:43;;;;;;;25.60;13.65;;;3.20;99.90;;;;;;4954438;28;20196;-82
2023/03/05 05:10:10;;;;;;;28.43;12.83;;;3.30;99.90;;;;;;4950596;28;20400;-83
2023/03/05 05:12:35;;;;;;;33.95;12.18;;;3.20;99.90;;;;;;4948134;29;20511;-85
2023/03/05 05:15:02;;;;;;;29.47;12.13;;;3.30;99.90;;;;;;4949031;29;20750;-82
2023/03/05 05:17:31;;;;;;;22.60;9.55;;;3.30;99.90;;;;;;4970568;28;20206;-85
2023/03/05 05:20:00;;;;;;;27.45;12.00;;;3.30;99.90;;;;;;4953541;29;20185;-85
2023/03/05 05:22:27;;;;;;;26.27;11.45;;;3.20;99.90;;;;;;4945710;29;20224;-83
2023/03/05 05:24:53;;;;;;;30.98;13.07;;;3.20;99.90;;;;;;4952836;28;20193;-84
2023/03/05 05:27:19;;;;;;;28.50;11.17;;;3.20;99.90;;;;;;4953700;28;20575;-82
2023/03/05 05:29:49;;;;;;;29.97;13.07;;;3.20;99.90;;;;;;4961890;29;20274;-84
2023/03/05 05:32:22;;;;;;;31.70;14.18;;;3.20;99.90;;;;;;4962527;29;20423;-85
2023/03/05 05:34:48;;;;;;;22.27;10.48;;;3.20;99.90;;;;;;4944446;29;20240;-83
2023/03/05 05:37:14;;;;;;;32.67;15.35;;;3.10;99.90;;;;;;4947242;29;20184;-83
2023/03/05 05:39:39;;;;;;;26.77;12.63;;;3.10;99.90;;;;;;4954993;28;20248;-83
2023/03/05 05:42:05;;;;;;;33.70;13.17;;;3.10;99.90;;;;;;4965586;29;20548;-84
2023/03/05 05:44:33;;;;;;;30.40;11.40;;;;;;;;;;4946706;29;20207;-83
2023/03/05 05:46:59;;;;;;;34.88;14.05;;;3.20;99.90;;;;;;4954073;29;20424;-82
2023/03/05 05:49:25;;;;;;;34.43;13.97;;;3.20;99.90;;;;;;4960355;29;20556;-85
2023/03/05 05:51:50;;;;;;;35.08;13.60;;;3.20;99.90;;;;;;4948682;29;20200;-84
2023/03/05 05:54:16;;;;;;;30.30;13.60;;;3.10;99.90;;;;;;4946379;29;20199;-83
2023/03/05 05:56:41;;;;;;;39.93;14.03;;;3.10;99.90;;;;;;4954909;28;20177;-86
2023/03/05 05:59:09;;;;;;;35.17;13.37;;;3.10;99.90;;;;;;4940254;29;20212;-84
2023/03/05 06:01:34;;;;;;;24.23;12.10;;;3.10;99.90;;;;;;4964283;29;20203;-84
2023/03/05 06:04:00;;;;;;;33.60;13.90;;;3.10;99.90;;;;;;4951965;28;20177;-84
2023/03/05 06:06:27;;;;;;;30.58;12.35;;;3.20;99.90;;;;;;4954533;28;20176;-84
2023/03/05 06:08:53;;;;;;;30.00;13.25;;;3.10;99.90;;;;;;4951332;29;20196;-84
2023/03/05 06:11:20;;;;;;;32.78;12.70;;;3.10;99.90;;;;;;4944649;29;20180;-84
2023/03/05 06:13:49;;;;;;;34.00;13.60;;;3.20;99.90;;;;;;4953352;29;20223;-84
2023/03/05 06:16:21;;;;;;;28.33;13.45;;;3.20;99.90;;;;;;4956047;28;20177;-84
2023/03/05 06:18:46;;;;;;;24.25;12.85;;;3.20;99.90;;;;;;4950978;29;20208;-84
2023/03/05 06:21:15;;;;;;;24.00;10.73;;;3.20;99.90;;;;;;4969979;29;20189;-85
2023/03/05 06:23:42;;;;;;;34.40;14.80;;;3.20;99.90;;;;;;4968212;29;20169;-83
2023/03/05 06:26:11;;;;;;;36.03;14.15;;;3.10;99.90;;;;;;4960424;29;20197;-83
2023/03/05 06:28:36;;;;;;;35.78;11.40;;;3.20;99.90;;;;;;4961999;29;20220;-83
2023/03/05 06:31:10;;;;;;;29.70;12.53;;;3.10;99.90;;;;;;4949221;29;20172;-84
2023/03/05 06:33:36;;;;;;;30.20;11.98;;;3.10;99.90;;;;;;4963463;28;20177;-83
2023/03/05 06:36:04;;;;;;;33.30;14.73;;;3.10;99.90;;;;;;4965022;28;20191;-83
2023/03/05 06:38:30;;;;;;;34.55;14.23;;;3.30;99.90;;;;;;4941092;29;20286;-83
2023/03/05 06:41:10;;;;;;;28.23;13.17;;;3.20;99.90;;;;;;4964651;28;20201;-83
2023/03/05 06:43:37;;;;;;;32.53;14.63;;;3.20;99.90;;;;;;4951568;29;20168;-84
2023/03/05 06:46:05;;;;;;;25.80;12.75;;;4.00;99.90;;;;;;4953617;29;20165;-85
2023/03/05 06:48:30;;;;;;;36.63;13.75;;;3.30;99.90;;;;;;4967496;28;20204;-83
2023/03/05 06:50:56;;;;;;;37.97;16.33;;;3.30;99.90;;;;;;4960362;28;20251;-85
2023/03/05 06:53:23;;;;;;;30.47;13.67;;;3.80;99.90;;;;;;4956692;28;20196;-85
2023/03/05 06:55:49;;;;;;;30.15;12.82;;;3.30;99.90;;;;;;4935841;29;20630;-84
2023/03/05 06:58:15;;;;;;;31.35;13.70;;;4.00;99.90;;;;;;4947304;28;20587;-83
2023/03/05 07:00:41;;;;;;;29.70;13.07;;;3.40;99.90;;;;;;4950043;28;20211;-82
2023/03/05 07:03:07;;;;;;;34.90;13.38;;;3.30;99.90;;;;;;4949196;28;20264;-84
2023/03/05 07:05:32;;;;;;;30.17;12.07;;;3.40;99.90;;;;;;4951708;29;20211;-85
2023/03/05 07:07:58;;;;;;;31.10;13.87;;;3.30;99.90;;;;;;4957403;29;20255;-83
2023/03/05 07:10:23;;;;;;;33.20;14.50;;;3.30;99.90;;;;;;4958614;29;20246;-84
2023/03/05 07:12:49;;;;;;;34.97;13.53;;;3.40;99.90;;;;;;4964576;29;20188;-84
2023/03/05 07:15:14;;;;;;;37.57;13.20;;;3.40;99.90;;;;;;4960913;29;20187;-83
2023/03/05 07:17:40;;;;;;;33.90;14.03;;;3.40;99.90;;;;;;4950606;29;20188;-83
2023/03/05 07:20:06;;;;;;;25.27;12.00;;;2.80;99.90;;;;;;4967067;29;20191;-83
2023/03/05 07:22:32;;;;;;;31.50;12.30;;;3.40;99.90;;;;;;4967102;29;20173;-84
2023/03/05 07:24:57;;;;;;;30.00;11.93;;;3.40;99.90;;;;;;4961958;29;20180;-83
2023/03/05 07:27:24;;;;;;;27.93;13.17;;;3.40;99.90;;;;;;4968668;29;20201;-84
2023/03/05 07:29:50;;;;;;;38.72;17.33;;;3.40;99.90;;;;;;4969871;29;20172;-84
2023/03/05 07:32:15;;;;;;;32.77;13.90;;;4.00;99.90;;;;;;4969143;29;20545;-84
2023/03/05 07:34:41;;;;;;;31.10;11.43;;;3.60;99.90;;;;;;4950646;29;20275;-83
2023/03/05 07:37:06;;;;;;;27.40;14.60;;;3.50;99.90;;;;;;4962993;29;20246;-83
2023/03/05 07:39:32;;;;;;;32.20;12.80;;;3.50;99.90;;;;;;4948570;29;20177;-83
2023/03/05 07:41:57;;;;;;;26.70;12.73;;;3.40;99.90;;;;;;4950709;29;20287;-84
2023/03/05 07:44:23;;;;;;;33.27;13.17;;;3.40;99.90;;;;;;4949371;28;20196;-85
2023/03/05 07:46:48;;;;;;;32.17;13.80;;;3.50;99.90;;;;;;4959417;29;20264;-84
2023/03/05 07:49:14;;;;;;;39.90;11.93;;;4.10;99.90;;;;;;4938915;29;20279;-83
2023/03/05 07:51:40;;;;;;;25.13;11.63;;;;;;;;;;4935105;28;20189;-83
2023/03/05 07:54:06;;;;;;;32.78;14.10;;;3.50;99.90;;;;;;4952297;28;20264;-83
2023/03/05 07:56:34;;;;;;;34.67;12.03;;;3.50;99.90;;;;;;4951601;28;21607;-83
2023/03/05 07:59:18;;;;;;;33.63;12.52;;;3.50;99.90;;;;;;4930244;29;20502;-83
2023/03/05 08:01:45;;;;;;;36.75;13.75;;;3.50;99.90;;;;;;4950426;28;20208;-82
2023/03/05 08:04:10;;;;;;;27.02;13.20;;;3.50;99.90;;;;;;4948390;28;20259;-82
2023/03/05 08:06:39;;;;;;;30.13;12.33;;;3.60;99.90;;;;;;4937773;28;20219;-83
2023/03/05 08:09:05;;;;;;;29.60;12.32;;;3.50;99.90;;;;;;4944415;28;20198;-83
2023/03/05 08:11:31;;;;;;;30.10;12.10;;;3.50;99.90;;;;;;4946946;28;20196;-82
2023/03/05 08:13:58;;;;;;;37.47;12.97;;;3.50;99.90;;;;;;4951475;28;20440;-83
2023/03/05 08:16:25;;;;;;;36.70;12.57;;;3.40;99.90;;;;;;4948245;28;20176;-84
2023/03/05 08:18:54;;;;;;;30.55;12.60;;;3.40;99.90;;;;;;4925585;28;20236;-80
2023/03/05 08:21:34;;;;;;;29.88;13.20;;;3.50;99.90;;;;;;4935649;28;20193;-81
2023/03/05 08:24:05;;;;;;;30.33;11.27;;;3.70;99.90;;;;;;4946559;28;20260;-80
2023/03/05 08:26:32;;;;;;;32.65;11.50;;;3.70;99.90;;;;;;4946230;28;20661;-82
2023/03/05 08:28:58;;;;;;;34.42;14.15;;;3.90;99.90;;;;;;4942912;28;20201;-82
2023/03/05 08:31:25;;;;;;;33.33;13.00;;;4.10;99.90;;;;;;4931629;28;20748;-81
2023/03/05 08:33:54;;;;;;;24.92;12.05;;;4.10;99.90;;;;;;4918035;28;20443;-81
2023/03/05 08:36:20;;;;;;;26.60;12.48;;;4.20;99.90;;;;;;4927519;29;20228;-81
2023/03/05 08:38:47;;;;;;;38.13;12.98;;;4.20;99.90;;;;;;4929537;28;20212;-82
2023/03/05 08:41:14;;;;;;;31.00;10.57;;;4.20;99.90;;;;;;4942315;28;20208;-82
2023/03/05 08:43:40;;;;;;;38.10;13.05;;;4.10;99.90;;;;;;4942794;29;20181;-82
2023/03/05 08:46:06;;;;;;;31.73;13.77;;;;;;;;;;4943407;29;20319;-84
2023/03/05 08:48:33;;;;;;;32.13;15.17;;;;;;;;;;4948734;29;20455;-85
2023/03/05 08:51:25;;;;;;;25.15;12.07;;;4.10;99.90;;;;;;4952034;28;20440;-84
2023/03/05 08:53:53;;;;;;;35.60;10.55;;;4.10;99.90;;;;;;4926245;29;20196;-83
2023/03/05 08:56:19;;;;;;;34.35;15.15;;;4.10;99.90;;;;;;4942614;28;20374;-84
2023/03/05 08:58:46;;;;;;;35.78;14.70;;;4.10;99.90;;;;;;4947027;28;20237;-84
2023/03/05 09:01:12;;;;;;;27.55;11.45;;;4.00;99.90;;;;;;4932581;28;20216;-84
2023/03/05 09:03:38;;;;;;;33.75;12.93;;;4.00;99.90;;;;;;4937944;28;20177;-81
2023/03/05 09:06:07;;;;;;;33.03;14.27;;;3.80;99.90;;;;;;4943428;29;20177;-82
2023/03/05 09:08:33;;;;;;;32.85;11.98;;;3.80;99.90;;;;;;4949152;28;20452;-82
2023/03/05 09:11:01;;;;;;;34.33;13.25;;;3.70;99.90;;;;;;4934517;28;20723;-82
2023/03/05 09:13:27;;;;;;;28.98;13.15;;;3.70;99.90;;;;;;4942374;28;20302;-81
2023/03/05 09:15:58;;;;;;;28.80;13.90;;;3.70;99.90;;;;;;4945944;28;20189;-82
2023/03/05 09:18:24;;;;;;;33.85;12.57;;;3.70;99.90;;;;;;4951847;28;20215;-84
2023/03/05 09:20:50;;;;;;;43.13;14.82;;;3.70;99.90;;;;;;4939583;28;20780;-81
2023/03/05 09:23:15;;;;;;;31.27;14.20;;;3.80;99.90;;;;;;4931972;28;20203;-82
2023/03/05 09:25:41;;;;;;;30.77;12.77;;;;;;;;;;4927962;28;20252;-82
2023/03/05 09:28:07;;;;;;;28.83;12.40;;;3.80;99.90;;;;;;4946590;28;20204;-81
2023/03/05 09:30:34;;;;;;;44.63;15.27;;;3.80;99.90;;;;;;4932044;29;20472;-81
2023/03/05 09:33:00;;;;;;;33.10;12.93;;;3.90;99.90;;;;;;4950038;28;20240;-83
2023/03/05 09:35:26;;;;;;;41.42;13.18;;;3.90;99.90;;;;;;4932365;28;20235;-82
2023/03/05 09:37:51;;;;;;;41.07;15.97;;;4.00;99.90;;;;;;4937592;28;20204;-82
2023/03/05 09:40:19;;;;;;;52.90;14.43;;;4.10;99.90;;;;;;4937752;29;20211;-83
2023/03/05 09:42:58;;;;;;;25.95;10.55;;;4.20;99.90;;;;;;4932183;29;20187;-83
2023/03/05 09:45:31;;;;;;;27.15;12.75;;;4.10;99.90;;;;;;4948169;29;20271;-82
2023/03/05 09:48:15;;;;;;;31.15;12.75;;;4.20;99.90;;;;;;4948369;28;20193;-82
2023/03/05 09:50:51;;;;;;;26.83;11.98;;;4.40;99.90;;;;;;4950631;29;20184;-82
2023/03/05 09:53:35;;;;;;;36.33;13.30;;;4.50;99.90;;;;;;4938758;29;20179;-82
2023/03/05 09:56:11;;;;;;;29.38;13.68;;;4.60;99.90;;;;;;4947854;28;20336;-82
2023/03/05 09:58:39;;;;;;;34.40;13.75;;;4.80;99.90;;;;;;4929184;29;20323;-82
2023/03/05 10:01:10;;;;;;;28.20;12.85;;;5.10;99.90;;;;;;4941748;28;20207;-83
2023/03/05 10:03:56;;;;;;;23.08;11.90;;;5.10;99.90;;;;;;4938272;28;20173;-83
2023/03/05 10:06:35;;;;;;;22.83;10.63;;;5.20;99.90;;;;;;4949202;28;20298;-83
2023/03/05 10:09:16;;;;;;;35.88;12.50;;;5.20;99.90;;;;;;4951921;28;20200;-82
2023/03/05 10:11:56;;;;;;;27.80;12.93;;;5.50;99.90;;;;;;4946958;28;20193;-83
2023/03/05 10:14:26;;;;;;;27.42;13.60;;;5.50;99.90;;;;;;4932171;28;20668;-82
2023/03/05 10:17:01;;;;;;;31.30;12.15;;;5.30;99.90;;;;;;4943719;28;20188;-84
2023/03/05 10:19:54;;;;;;;34.67;14.13;;;5.20;99.90;;;;;;4943158;28;20537;-84
2023/03/05 10:22:29;;;;;;;30.13;13.65;;;5.40;99.90;;;;;;4945872;28;20220;-84
2023/03/05 10:25:01;;;;;;;25.13;12.48;;;5.40;99.90;;;;;;4948708;28;20191;-83
2023/03/05 10:27:44;;;;;;;37.50;13.65;;;5.30;99.90;;;;;;4932799;28;21366;-84
2023/03/05 10:30:53;;;;;;;35.65;13.88;;;5.10;99.90;;;;;;4931651;28;20279;-85
2023/03/05 10:33:56;;;;;;;33.90;13.40;;;5.10;99.90;;;;;;4949675;28;20181;-84
2023/03/05 10:36:40;;;;;;;29.33;12.88;;;5.20;99.90;;;;;;4951679;28;20219;-84
2023/03/05 10:39:43;;;;;;;35.75;13.25;;;5.20;99.90;;;;;;4949631;28;20190;-84
2023/03/05 10:42:24;;;;;;;27.88;13.25;;;5.30;99.90;;;;;;4927782;28;20212;-83
2023/03/05 10:44:51;;;;;;;30.85;12.50;;;5.30;99.90;;;;;;4944641;28;20187;-84
2023/03/05 10:47:47;;;;;;;29.23;12.98;;;5.30;99.90;;;;;;4929939;28;20195;-84
2023/03/05 10:50:20;;;;;;;32.95;12.13;;;5.30;99.90;;;;;;4915791;28;20189;-84
2023/03/05 10:53:12;;;;;;;24.50;11.68;;;5.40;99.90;;;;;;4935897;28;20569;-85
2023/03/05 10:55:38;;;;;;;31.58;12.27;;;5.60;99.90;;;;;;4919183;28;20392;-83
2023/03/05 10:58:16;;;;;;;43.03;12.10;;;5.60;99.90;;;;;;4932866;28;20209;-83
2023/03/05 11:00:58;;;;;;;31.77;13.43;;;5.90;99.90;;;;;;4938491;28;20494;-84
2023/03/05 11:03:24;;;;;;;19.17;10.75;;;5.90;99.90;;;;;;4929856;28;20184;-84
2023/03/05 11:05:58;;;;;;;25.93;11.37;;;6.00;99.90;;;;;;4947092;28;20569;-84
2023/03/05 11:08:32;;;;;;;24.15;11.77;;;5.60;99.90;;;;;;4949916;28;20204;-84
2023/03/05 11:11:02;;;;;;;25.52;12.95;;;5.20;99.90;;;;;;4938330;28;20577;-84
2023/03/05 11:13:32;;;;;;;23.92;11.30;;;5.10;99.90;;;;;;4948224;28;20184;-83
2023/03/05 11:16:03;;;;;;;19.83;10.38;;;5.10;99.90;;;;;;4953118;28;20235;-83
2023/03/05 11:18:33;;;;;;;26.67;11.20;;;5.00;99.90;;;;;;4950985;28;20244;-84
2023/03/05 11:21:11;;;;;;;24.55;11.77;;;5.00;99.90;;;;;;4934811;29;20280;-83
2023/03/05 11:23:37;;;;;;;21.88;11.35;;;5.30;99.90;;;;;;4952785;29;20418;-83
2023/03/05 11:26:11;;;;;;;34.77;12.20;;;5.20;99.90;;;;;;4956626;29;20261;-84
2023/03/05 11:28:52;;;;;;;28.27;12.48;;;5.50;99.90;;;;;;4950997;29;20203;-84
2023/03/05 11:31:17;;;;;;;22.70;11.45;;;5.60;99.90;;;;;;4950851;29;20230;-84
2023/03/05 11:34:18;;;;;;;23.17;11.13;;;5.80;99.90;;;;;;4930880;29;20189;-84
2023/03/05 11:36:49;;;;;;;28.45;12.82;;;5.70;99.90;;;;;;4914257;29;20184;-85
2023/03/05 11:39:18;;;;;;;25.58;11.48;;;5.70;99.90;;;;;;4945497;29;20200;-86
2023/03/05 11:41:51;;;;;;;24.90;11.13;;;5.50;99.90;;;;;;4950892;29;20725;-84
2023/03/05 11:44:37;;;;;;;21.00;11.32;;;5.70;99.90;;;;;;4946670;29;20212;-84
2023/03/05 11:47:12;;;;;;;26.83;10.57;;;5.50;99.90;;;;;;4929920;28;20193;-85
2023/03/05 11:49:43;;;;;;;20.02;10.60;;;5.50;99.90;;;;;;4949130;29;20185;-87
2023/03/05 11:52:21;;;;;;;27.70;12.70;;;5.30;99.90;;;;;;4934598;29;20184;-84
2023/03/05 11:54:54;;;;;;;25.77;11.85;;;5.20;99.90;;;;;;4947640;29;20547;-84
2023/03/05 11:57:23;;;;;;;29.85;11.63;;;5.30;99.90;;;;;;4939066;29;20191;-85
2023/03/05 11:59:50;;;;;;;26.13;12.35;;;5.30;99.90;;;;;;4949121;29;20197;-83
2023/03/05 12:02:23;;;;;;;24.15;13.07;;;5.30;99.90;;;;;;4928524;29;21192;-83
2023/03/05 12:04:49;;;;;;;25.20;12.02;;;5.40;99.90;;;;;;4945388;29;20319;-84
2023/03/05 12:07:25;;;;;;;21.95;12.07;;;5.20;99.90;;;;;;4951109;29;20230;-85
2023/03/05 12:09:52;;;;;;;20.83;9.50;;;5.20;99.90;;;;;;4932937;29;20323;-85
2023/03/05 12:12:27;;;;;;;22.65;9.50;;;5.20;99.90;;;;;;4947542;28;20200;-84
2023/03/05 12:15:18;;;;;;;25.17;9.57;;;4.90;99.90;;;;;;4945751;29;20184;-84
2023/03/05 12:17:48;;;;;;;22.45;11.30;;;4.90;99.90;;;;;;4950294;28;20591;-84
2023/03/05 12:20:35;;;;;;;24.10;10.35;;;4.80;99.90;;;;;;4932666;28;20192;-84
2023/03/05 12:23:01;;;;;;;21.33;9.40;;;4.80;99.90;;;;;;4957355;28;20263;-83
2023/03/05 12:25:39;;;;;;;22.03;10.83;;;4.80;99.90;;;;;;4943033;29;20177;-83
2023/03/05 12:28:12;;;;;;;24.63;10.60;;;5.00;99.90;;;;;;4931997;28;20201;-82
2023/03/05 12:30:52;;;;;;;18.50;8.77;;;5.00;99.90;;;;;;4940169;29;20188;-82
2023/03/05 12:33:35;;;;;;;25.35;10.55;;;4.90;99.90;;;;;;4938345;29;20685;-85
2023/03/05 12:36:36;;;;;;;20.95;10.40;;;5.00;99.90;;;;;;4951308;28;20222;-85
2023/03/05 12:39:51;;;;;;;24.60;10.40;;;5.20;99.90;;;;;;4950416;28;20213;-83
2023/03/05 12:42:29;;;;;;;24.50;11.30;;;5.30;99.90;;;;;;4913964;28;20239;-82
2023/03/05 12:45:18;;;;;;;25.25;10.82;;;5.20;99.90;;;;;;4946107;28;20184;-82
2023/03/05 12:47:55;;;;;;;26.35;11.35;;;5.20;99.90;;;;;;4949019;28;20209;-83
2023/03/05 12:50:44;;;;;;;22.08;12.13;;;5.10;99.90;;;;;;4950837;28;20211;-83
2023/03/05 12:53:13;;;;;;;25.13;10.68;;;5.10;99.90;;;;;;4934245;28;20196;-83